createdAt,value
2024-03-18T00:00:26.222Z,11.900
2024-03-18T00:01:57.138Z,11.900
2024-03-18T00:04:23.793Z,11.900
2024-03-18T00:05:28.237Z,11.900
2024-03-18T00:06:33.578Z,11.900
2024-03-18T00:07:34.527Z,12.000
2024-03-18T00:09:10.533Z,11.900
2024-03-18T00:10:01.152Z,11.900
2024-03-18T00:10:42.240Z,11.900
2024-03-18T00:11:29.946Z,11.900
2024-03-18T00:13:10.783Z,11.900
2024-03-18T00:13:23.957Z,11.900
2024-03-18T00:14:25.802Z,11.900
2024-03-18T00:15:25.449Z,11.900
2024-03-18T00:17:36.964Z,11.900
2024-03-18T00:18:11.318Z,11.900
2024-03-18T00:18:47.821Z,11.900
2024-03-18T00:19:36.437Z,11.900
2024-03-18T00:20:29.415Z,11.900
2024-03-18T00:21:23.861Z,11.900
2024-03-18T00:22:23.499Z,11.900
2024-03-18T00:24:06.934Z,11.900
2024-03-18T00:25:34.390Z,11.900
2024-03-18T00:26:39.276Z,11.900
2024-03-18T00:27:37.615Z,11.900
2024-03-18T00:28:30.769Z,11.900
2024-03-18T00:29:27.983Z,11.900
2024-03-18T00:31:11.151Z,11.900
2024-03-18T00:31:47.581Z,11.900
2024-03-18T00:32:36.472Z,11.900
2024-03-18T00:33:22.654Z,11.900
2024-03-18T00:34:34.832Z,11.900
2024-03-18T00:35:29.678Z,11.800
2024-03-18T00:36:22.314Z,11.800
2024-03-18T00:38:08.861Z,11.800
2024-03-18T00:39:39.326Z,11.800
2024-03-18T00:40:25.226Z,11.800
2024-03-18T00:41:38.030Z,11.800
2024-03-18T00:42:33.885Z,11.800
2024-03-18T00:43:26.258Z,11.800
2024-03-18T00:45:54.275Z,11.700
2024-03-18T00:46:41.282Z,11.700
2024-03-18T00:47:27.209Z,11.700
2024-03-18T00:48:42.384Z,11.700
2024-03-18T00:49:36.150Z,11.700
2024-03-18T00:50:29.970Z,11.700
2024-03-18T00:51:20.972Z,11.700
2024-03-18T00:52:19.151Z,11.700
2024-03-18T00:53:43.304Z,11.700
2024-03-18T00:54:31.156Z,11.700
2024-03-18T00:55:46.481Z,11.700
2024-03-18T00:56:41.273Z,11.700
2024-03-18T00:57:34.204Z,11.700
2024-03-18T00:59:23.399Z,11.700
2024-03-18T01:00:47.208Z,11.700
2024-03-18T01:01:38.439Z,11.700
2024-03-18T01:02:21.160Z,11.700
2024-03-18T01:03:45.231Z,11.700
2024-03-18T01:04:38.181Z,11.700
2024-03-18T01:05:31.224Z,11.700
2024-03-18T01:06:22.347Z,11.700
2024-03-18T01:07:20.621Z,11.700
2024-03-18T01:08:37.422Z,11.700
2024-03-18T01:09:22.084Z,11.700
2024-03-18T01:10:49.253Z,11.600
2024-03-18T01:11:41.076Z,11.600
2024-03-18T01:12:36.660Z,11.600
2024-03-18T01:13:26.495Z,11.600
2024-03-18T01:14:20.261Z,11.600
2024-03-18T01:15:40.102Z,11.600
2024-03-18T01:16:26.094Z,11.600
2024-03-18T01:17:52.973Z,11.600
2024-03-18T01:18:48.081Z,11.600
2024-03-18T01:19:34.957Z,11.600
2024-03-18T01:20:22.003Z,11.600
2024-03-18T01:21:24.098Z,11.600
2024-03-18T01:22:21.725Z,11.600
2024-03-18T01:23:28.288Z,11.600
2024-03-18T01:24:57.008Z,11.600
2024-03-18T01:25:51.324Z,11.600
2024-03-18T01:26:37.946Z,11.600
2024-03-18T01:27:27.583Z,11.600
2024-03-18T01:28:27.472Z,11.500
2024-03-18T01:29:20.226Z,11.500
2024-03-18T01:30:20.946Z,11.500
2024-03-18T01:32:03.599Z,11.500
2024-03-18T01:32:54.629Z,11.500
2024-03-18T01:33:41.011Z,11.500
2024-03-18T01:34:27.782Z,11.500
2024-03-18T01:35:31.365Z,11.500
2024-03-18T01:36:24.556Z,11.500
2024-03-18T01:37:24.645Z,11.500
2024-03-18T01:38:21.446Z,11.500
2024-03-18T01:39:58.794Z,11.500
2024-03-18T01:40:44.569Z,11.500
2024-03-18T01:41:30.675Z,11.500
2024-03-18T01:42:35.496Z,11.500
2024-03-18T01:43:28.356Z,11.500
2024-03-18T01:44:23.002Z,11.500
2024-03-18T01:45:20.695Z,11.500
2024-03-18T01:47:05.551Z,11.500
2024-03-18T01:47:46.596Z,11.500
2024-03-18T01:48:32.471Z,11.500
2024-03-18T01:49:20.576Z,11.500
2024-03-18T01:50:32.088Z,11.500
2024-03-18T01:51:26.491Z,11.500
2024-03-18T01:52:27.346Z,11.500
2024-03-18T01:54:05.513Z,11.500
2024-03-18T01:54:49.397Z,11.500
2024-03-18T01:55:38.219Z,11.500
2024-03-18T01:56:23.297Z,11.500
2024-03-18T01:57:36.237Z,11.500
2024-03-18T01:58:31.587Z,11.500
2024-03-18T01:59:23.375Z,11.500
2024-03-18T02:00:52.902Z,11.500
2024-03-18T02:02:07.786Z,11.400
2024-03-18T02:02:45.701Z,11.400
2024-03-18T02:10:59.400Z,11.400
2024-03-18T02:12:36.620Z,11.400
2024-03-18T02:12:52.125Z,11.400
2024-03-18T02:13:32.413Z,11.400
2024-03-18T02:14:45.966Z,11.400
2024-03-18T02:15:29.493Z,11.400
2024-03-18T02:17:25.987Z,11.400
2024-03-18T02:18:02.965Z,11.400
2024-03-18T02:19:30.232Z,11.400
2024-03-18T02:20:17.631Z,11.400
2024-03-18T02:20:36.082Z,11.400
2024-03-18T02:21:30.335Z,11.400
2024-03-18T02:22:27.543Z,11.400
2024-03-18T02:32:36.184Z,11.300
2024-03-18T02:34:04.708Z,11.300
2024-03-18T02:34:45.176Z,11.300
2024-03-18T02:35:45.789Z,11.300
2024-03-18T02:36:27.702Z,11.300
2024-03-18T02:38:05.559Z,11.300
2024-03-18T02:38:23.452Z,11.300
2024-03-18T02:39:27.691Z,11.300
2024-03-18T02:40:55.001Z,11.300
2024-03-18T02:41:50.237Z,11.300
2024-03-18T02:42:36.844Z,11.300
2024-03-18T02:43:25.603Z,11.300
2024-03-18T02:44:26.149Z,11.300
2024-03-18T02:45:26.914Z,11.300
2024-03-18T02:46:30.343Z,11.300
2024-03-18T02:47:59.071Z,11.300
2024-03-18T02:48:52.879Z,11.300
2024-03-18T02:49:39.746Z,11.400
2024-03-18T02:50:26.274Z,11.400
2024-03-18T02:51:28.944Z,11.400
2024-03-18T02:52:21.947Z,11.400
2024-03-18T02:53:24.842Z,11.400
2024-03-18T02:54:20.363Z,11.400
2024-03-18T02:55:56.503Z,11.300
2024-03-18T02:56:42.686Z,11.300
2024-03-18T02:57:29.893Z,11.400
2024-03-18T02:58:33.551Z,11.400
2024-03-18T02:59:26.116Z,11.400
2024-03-18T03:00:21.421Z,11.400
2024-03-18T03:01:20.363Z,11.400
2024-03-18T03:02:59.816Z,11.400
2024-03-18T03:03:45.774Z,11.400
2024-03-18T03:04:32.532Z,11.300
2024-03-18T03:05:37.200Z,11.300
2024-03-18T03:06:30.271Z,11.300
2024-03-18T03:07:24.606Z,11.300
2024-03-18T03:08:26.117Z,11.300
2024-03-18T03:10:05.269Z,11.300
2024-03-18T03:10:48.450Z,11.300
2024-03-18T03:11:36.099Z,11.300
2024-03-18T03:12:22.481Z,11.400
2024-03-18T03:13:34.901Z,11.400
2024-03-18T03:14:28.492Z,11.400
2024-03-18T03:15:21.824Z,11.400
2024-03-18T03:16:21.632Z,11.400
2024-03-18T03:17:51.654Z,11.400
2024-03-18T03:18:39.166Z,11.400
2024-03-18T03:19:26.914Z,11.400
2024-03-18T03:20:38.344Z,11.400
2024-03-18T03:21:32.385Z,11.400
2024-03-18T03:22:26.667Z,11.400
2024-03-18T03:23:21.497Z,11.400
2024-03-18T03:24:55.228Z,11.400
2024-03-18T03:25:42.389Z,11.400
2024-03-18T03:26:29.212Z,11.350
2024-03-18T03:27:43.406Z,11.400
2024-03-18T03:28:36.752Z,11.400
2024-03-18T03:29:30.208Z,11.400
2024-03-18T03:30:24.233Z,11.300
2024-03-18T03:31:23.468Z,11.300
2024-03-18T03:32:45.293Z,11.300
2024-03-18T03:33:31.376Z,11.300
2024-03-18T03:34:48.538Z,11.300
2024-03-18T03:35:41.194Z,11.300
2024-03-18T03:36:33.327Z,11.300
2024-03-18T03:37:26.300Z,11.300
2024-03-18T03:38:27.508Z,11.300
2024-03-18T03:39:22.773Z,11.300
2024-03-18T03:40:35.200Z,11.300
2024-03-18T03:41:20.762Z,11.300
2024-03-18T03:42:45.067Z,11.300
2024-03-18T03:43:38.187Z,11.300
2024-03-18T03:44:31.191Z,11.300
2024-03-18T03:45:22.305Z,11.300
2024-03-18T03:46:24.582Z,11.300
2024-03-18T03:47:39.004Z,11.300
2024-03-18T03:48:23.223Z,11.300
2024-03-18T03:49:48.055Z,11.300
2024-03-18T03:50:41.066Z,11.300
2024-03-18T03:51:33.074Z,11.300
2024-03-18T03:52:26.466Z,11.300
2024-03-18T03:53:28.793Z,11.200
2024-03-18T03:54:22.013Z,11.300
2024-03-18T03:55:27.241Z,11.200
2024-03-18T03:56:51.164Z,11.200
2024-03-18T03:57:45.999Z,11.200
2024-03-18T03:58:38.947Z,11.200
2024-03-18T03:59:22.843Z,11.200
2024-03-18T04:00:22.949Z,11.200
2024-03-18T04:01:26.972Z,11.200
2024-03-18T04:02:29.288Z,11.200
2024-03-18T04:04:05.872Z,11.200
2024-03-18T04:04:53.191Z,11.200
2024-03-18T04:05:38.759Z,11.200
2024-03-18T04:06:26.577Z,11.200
2024-03-18T04:07:27.251Z,11.200
2024-03-18T04:08:20.254Z,11.200
2024-03-18T04:09:23.927Z,11.200
2024-03-18T04:10:19.650Z,11.200
2024-03-18T04:11:54.986Z,11.200
2024-03-18T04:12:43.569Z,11.200
2024-03-18T04:13:29.766Z,11.200
2024-03-18T04:14:31.235Z,11.200
2024-03-18T04:15:24.195Z,11.200
2024-03-18T04:16:28.978Z,11.200
2024-03-18T04:17:24.344Z,11.200
2024-03-18T04:18:57.570Z,11.200
2024-03-18T04:19:44.576Z,11.200
2024-03-18T04:20:31.651Z,11.200
2024-03-18T04:21:35.577Z,11.200
2024-03-18T04:22:28.317Z,11.200
2024-03-18T04:23:23.472Z,11.200
2024-03-18T04:24:25.254Z,11.200
2024-03-18T04:26:03.938Z,11.200
2024-03-18T04:26:47.645Z,11.200
2024-03-18T04:27:34.423Z,11.200
2024-03-18T04:28:21.199Z,11.200
2024-03-18T04:29:32.033Z,11.200
2024-03-18T04:30:26.486Z,11.200
2024-03-18T04:31:29.043Z,11.200
2024-03-18T04:33:52.624Z,11.200
2024-03-18T04:34:39.120Z,11.200
2024-03-18T04:35:24.432Z,11.300
2024-03-18T04:36:37.449Z,11.300
2024-03-18T04:37:30.670Z,11.400
2024-03-18T04:38:23.489Z,11.400
2024-03-18T04:39:25.962Z,11.400
2024-03-18T04:40:54.253Z,11.400
2024-03-18T04:41:40.388Z,11.400
2024-03-18T04:42:29.080Z,11.400
2024-03-18T04:43:42.138Z,11.400
2024-03-18T04:44:34.176Z,11.400
2024-03-18T04:45:27.377Z,11.400
2024-03-18T04:46:26.125Z,11.400
2024-03-18T04:47:23.084Z,11.400
2024-03-18T04:48:45.008Z,11.400
2024-03-18T04:49:32.249Z,11.400
2024-03-18T04:50:44.653Z,11.400
2024-03-18T04:51:38.990Z,11.400
2024-03-18T04:52:32.099Z,11.400
2024-03-18T04:53:26.920Z,11.400
2024-03-18T04:54:28.388Z,11.400
2024-03-18T04:55:20.901Z,11.400
2024-03-18T04:56:34.997Z,11.400
2024-03-18T04:57:19.142Z,11.400
2024-03-18T04:58:43.102Z,11.400
2024-03-18T04:59:34.880Z,11.400
2024-03-18T05:00:28.875Z,11.400
2024-03-18T05:01:20.308Z,11.500
2024-03-18T05:02:24.342Z,11.500
2024-03-18T05:03:36.823Z,11.500
2024-03-18T05:04:22.223Z,11.500
2024-03-18T05:05:47.590Z,11.450
2024-03-18T05:06:40.827Z,11.400
2024-03-18T05:07:32.737Z,11.400
2024-03-18T05:08:23.914Z,11.400
2024-03-18T05:09:28.487Z,11.400
2024-03-18T05:10:21.329Z,11.400
2024-03-18T05:11:25.373Z,11.400
2024-03-18T05:12:50.711Z,11.400
2024-03-18T05:13:43.639Z,11.400
2024-03-18T05:14:36.757Z,11.400
2024-03-18T05:15:22.144Z,11.400
2024-03-18T05:16:22.468Z,11.400
2024-03-18T05:17:27.590Z,11.500
2024-03-18T05:18:29.639Z,11.500
2024-03-18T05:19:55.242Z,11.500
2024-03-18T05:20:48.284Z,11.500
2024-03-18T05:21:41.225Z,11.500
2024-03-18T05:23:25.225Z,11.500
2024-03-18T05:24:31.364Z,11.500
2024-03-18T05:25:23.094Z,11.600
2024-03-18T05:26:58.507Z,11.600
2024-03-18T05:27:54.421Z,11.600
2024-03-18T05:28:40.311Z,11.600
2024-03-18T05:29:28.638Z,11.600
2024-03-18T05:30:28.664Z,11.600
2024-03-18T05:31:22.325Z,11.600
2024-03-18T05:32:27.334Z,11.600
2024-03-18T05:33:23.545Z,11.600
2024-03-18T05:34:55.138Z,11.600
2024-03-18T05:35:45.121Z,11.600
2024-03-18T05:36:31.308Z,11.550
2024-03-18T05:37:33.031Z,11.600
2024-03-18T05:38:25.899Z,11.600
2024-03-18T05:39:31.621Z,11.600
2024-03-18T05:41:07.312Z,11.600
2024-03-18T05:42:47.631Z,11.600
2024-03-18T05:43:34.229Z,11.600
2024-03-18T05:44:21.539Z,11.600
2024-03-18T05:45:31.098Z,11.600
2024-03-18T05:46:24.140Z,11.600
2024-03-18T05:47:28.507Z,11.600
2024-03-18T05:49:50.186Z,11.700
2024-03-18T05:50:38.021Z,11.700
2024-03-18T05:51:24.031Z,11.700
2024-03-18T05:52:36.216Z,11.700
2024-03-18T05:53:28.990Z,11.700
2024-03-18T05:54:21.913Z,11.700
2024-03-18T05:55:25.606Z,11.700
2024-03-18T05:56:52.866Z,11.700
2024-03-18T05:57:40.059Z,11.700
2024-03-18T05:58:26.912Z,11.750
2024-03-18T05:59:39.915Z,11.800
2024-03-18T06:00:33.074Z,11.800
2024-03-18T06:01:25.936Z,11.800
2024-03-18T06:02:21.816Z,11.800
2024-03-18T06:03:56.805Z,11.800
2024-03-18T06:05:29.904Z,11.800
2024-03-18T06:06:44.160Z,11.800
2024-03-18T06:07:36.758Z,11.800
2024-03-18T06:08:30.213Z,11.900
2024-03-18T06:09:27.348Z,11.900
2024-03-18T06:10:27.503Z,11.800
2024-03-18T06:11:20.331Z,11.800
2024-03-18T06:12:33.784Z,11.800
2024-03-18T06:13:47.667Z,11.800
2024-03-18T06:14:40.567Z,11.850
2024-03-18T06:15:34.713Z,11.900
2024-03-18T06:16:27.625Z,11.900
2024-03-18T06:17:31.993Z,12.000
2024-03-18T06:18:24.475Z,12.000
2024-03-18T06:19:34.163Z,12.000
2024-03-18T06:20:22.478Z,12.000
2024-03-18T06:21:45.531Z,12.000
2024-03-18T06:22:37.623Z,12.000
2024-03-18T06:23:31.821Z,12.000
2024-03-18T06:24:22.031Z,12.000
2024-03-18T06:25:28.692Z,12.000
2024-03-18T06:26:23.556Z,12.000
2024-03-18T06:27:24.577Z,11.900
2024-03-18T06:28:48.438Z,11.900
2024-03-18T06:29:41.493Z,11.900
2024-03-18T06:30:37.491Z,11.900
2024-03-18T06:31:22.239Z,11.900
2024-03-18T06:32:32.816Z,12.000
2024-03-18T06:33:28.428Z,12.000
2024-03-18T06:34:27.636Z,12.000
2024-03-18T06:35:52.426Z,12.000
2024-03-18T06:36:46.368Z,11.900
2024-03-18T06:37:38.479Z,11.900
2024-03-18T06:38:24.433Z,11.900
2024-03-18T06:39:23.217Z,12.000
2024-03-18T06:40:31.433Z,12.000
2024-03-18T06:41:26.719Z,12.000
2024-03-18T06:42:58.123Z,12.000
2024-03-18T06:43:50.412Z,12.000
2024-03-18T06:44:42.268Z,12.000
2024-03-18T06:46:27.067Z,12.000
2024-03-18T06:47:19.925Z,12.000
2024-03-18T06:48:26.936Z,12.000
2024-03-18T06:49:20.584Z,12.000
2024-03-18T06:50:55.340Z,12.000
2024-03-18T06:51:43.366Z,12.000
2024-03-18T06:52:31.701Z,12.000
2024-03-18T06:53:31.017Z,12.000
2024-03-18T06:54:24.316Z,12.000
2024-03-18T06:55:32.105Z,12.000
2024-03-18T06:56:24.640Z,12.000
2024-03-18T06:58:46.305Z,12.000
2024-03-18T06:59:32.252Z,12.000
2024-03-18T07:00:35.923Z,12.000
2024-03-18T07:01:30.491Z,12.000
2024-03-18T07:02:22.266Z,12.000
2024-03-18T07:03:29.629Z,12.000
2024-03-18T07:05:50.192Z,12.100
2024-03-18T07:06:36.221Z,12.100
2024-03-18T07:07:23.229Z,12.100
2024-03-18T07:08:34.266Z,12.100
2024-03-18T07:09:26.357Z,12.100
2024-03-18T07:10:29.251Z,12.200
2024-03-18T07:11:25.910Z,12.200
2024-03-18T07:12:52.149Z,12.200
2024-03-18T07:13:39.322Z,12.200
2024-03-18T07:14:26.185Z,12.300
2024-03-18T07:15:39.630Z,12.300
2024-03-18T07:16:30.275Z,12.300
2024-03-18T07:17:23.535Z,12.400
2024-03-18T07:18:20.086Z,12.400
2024-03-18T07:19:23.766Z,12.400
2024-03-18T07:20:43.865Z,12.400
2024-03-18T07:21:29.015Z,12.500
2024-03-18T07:22:41.054Z,12.500
2024-03-18T07:23:34.034Z,12.600
2024-03-18T07:24:27.072Z,12.600
2024-03-18T07:25:23.091Z,12.600
2024-03-18T07:26:58.094Z,12.600
2024-03-18T07:28:31.993Z,12.700
2024-03-18T07:29:47.033Z,12.700
2024-03-18T07:30:39.141Z,12.800
2024-03-18T07:31:32.018Z,12.800
2024-03-18T07:32:27.171Z,12.800
2024-03-18T07:33:31.147Z,12.900
2024-03-18T07:34:24.145Z,12.900
2024-03-18T07:35:33.381Z,12.900
2024-03-18T07:36:20.943Z,12.900
2024-03-18T07:37:42.974Z,12.900
2024-03-18T07:38:37.378Z,13.000
2024-03-18T07:39:30.057Z,13.000
2024-03-18T07:40:20.146Z,13.100
2024-03-18T07:41:28.454Z,13.100
2024-03-18T07:42:22.968Z,13.100
2024-03-18T07:43:24.777Z,13.100
2024-03-18T07:44:49.187Z,13.100
2024-03-18T07:45:41.512Z,13.200
2024-03-18T07:46:32.988Z,13.200
2024-03-18T07:47:24.238Z,13.200
2024-03-18T07:48:34.105Z,13.300
2024-03-18T07:49:27.274Z,13.300
2024-03-18T07:50:26.280Z,13.300
2024-03-18T07:51:51.051Z,13.300
2024-03-18T07:52:44.017Z,13.300
2024-03-18T07:53:35.980Z,13.300
2024-03-18T07:54:23.008Z,13.300
2024-03-18T07:55:20.854Z,13.400
2024-03-18T07:56:31.854Z,13.400
2024-03-18T07:57:24.853Z,13.500
2024-03-18T07:58:55.022Z,13.500
2024-03-18T07:59:46.531Z,13.500
2024-03-18T08:00:41.687Z,13.550
2024-03-18T08:01:25.771Z,13.600
2024-03-18T08:02:25.122Z,13.600
2024-03-18T08:03:36.101Z,13.600
2024-03-18T08:04:29.341Z,13.700
2024-03-18T08:05:20.249Z,13.700
2024-03-18T08:07:33.394Z,13.700
2024-03-18T08:08:27.315Z,13.700
2024-03-18T08:09:24.985Z,13.700
2024-03-18T08:10:22.981Z,13.700
2024-03-18T08:11:31.382Z,13.800
2024-03-18T08:12:24.247Z,13.800
2024-03-18T08:14:45.080Z,13.800
2024-03-18T08:15:29.245Z,13.800
2024-03-18T08:16:24.052Z,13.800
2024-03-18T08:17:28.217Z,13.800
2024-03-18T08:18:29.760Z,13.900
2024-03-18T08:19:25.257Z,13.900
2024-03-18T08:20:21.429Z,13.900
2024-03-18T08:22:35.181Z,14.000
2024-03-18T08:23:23.271Z,14.000
2024-03-18T08:24:19.345Z,14.100
2024-03-18T08:25:22.842Z,14.100
2024-03-18T08:26:26.053Z,14.100
2024-03-18T08:27:21.318Z,14.200
2024-03-18T08:28:32.225Z,14.200
2024-03-18T08:29:27.379Z,14.200
2024-03-18T08:30:27.079Z,14.200
2024-03-18T08:31:20.155Z,14.200
2024-03-18T08:32:29.054Z,14.200
2024-03-18T08:33:26.636Z,14.300
2024-03-18T08:34:21.307Z,14.300
2024-03-18T08:35:24.191Z,14.300
2024-03-18T08:36:27.094Z,14.300
2024-03-18T08:37:24.192Z,14.400
2024-03-18T08:38:19.257Z,14.400
2024-03-18T08:39:31.684Z,14.400
2024-03-18T08:40:28.595Z,14.400
2024-03-18T08:41:21.367Z,14.400
2024-03-18T08:42:29.307Z,14.400
2024-03-18T08:43:20.957Z,14.400
2024-03-18T08:44:23.146Z,14.400
2024-03-18T08:45:19.399Z,14.400
2024-03-18T08:46:28.957Z,14.400
2024-03-18T08:47:29.871Z,14.400
2024-03-18T08:48:21.102Z,14.400
2024-03-18T08:49:46.439Z,14.400
2024-03-18T08:51:23.363Z,14.400
2024-03-18T08:52:20.106Z,14.400
2024-03-18T08:53:31.350Z,14.400
2024-03-18T08:54:25.725Z,14.400
2024-03-18T08:55:23.319Z,14.400
2024-03-18T08:56:31.343Z,14.400
2024-03-18T08:57:28.569Z,14.400
2024-03-18T08:59:19.251Z,14.400
2024-03-18T09:00:29.477Z,14.400
2024-03-18T09:01:26.569Z,14.400
2024-03-18T09:02:21.208Z,14.400
2024-03-18T09:03:24.431Z,14.400
2024-03-18T09:04:27.373Z,14.400
2024-03-18T09:05:25.588Z,14.400
2024-03-18T09:07:48.647Z,14.400
2024-03-18T09:08:41.621Z,14.400
2024-03-18T09:09:34.693Z,14.400
2024-03-18T09:10:20.310Z,14.400
2024-03-18T09:11:36.681Z,14.400
2024-03-18T09:12:31.637Z,14.400
2024-03-18T09:13:22.681Z,14.400
2024-03-18T09:14:30.752Z,14.400
2024-03-18T09:15:46.796Z,14.300
2024-03-18T09:16:39.809Z,14.250
2024-03-18T09:17:24.743Z,14.200
2024-03-18T09:18:23.151Z,14.200
2024-03-18T09:19:23.279Z,14.200
2024-03-18T09:20:18.941Z,14.200
2024-03-18T09:21:19.843Z,14.100
2024-03-18T09:22:26.702Z,14.100
2024-03-18T09:23:21.350Z,14.100
2024-03-18T09:24:27.508Z,14.100
2024-03-18T09:25:28.932Z,14.100
2024-03-18T09:26:20.232Z,14.100
2024-03-18T09:27:19.495Z,14.200
2024-03-18T09:28:22.680Z,14.200
2024-03-18T09:29:25.295Z,14.200
2024-03-18T09:30:37.367Z,14.200
2024-03-18T09:31:32.593Z,14.200
2024-03-18T09:32:28.683Z,14.200
2024-03-18T09:33:23.851Z,14.200
2024-03-18T09:34:37.301Z,14.200
2024-03-18T09:35:24.418Z,14.200
2024-03-18T09:36:21.600Z,14.300
2024-03-18T09:37:35.651Z,14.300
2024-03-18T09:38:33.607Z,14.300
2024-03-18T09:39:19.381Z,14.400
2024-03-18T09:40:23.234Z,14.400
2024-03-18T09:41:22.825Z,14.500
2024-03-18T09:42:33.703Z,14.500
2024-03-18T09:43:25.892Z,14.500
2024-03-18T09:44:22.965Z,14.500
2024-03-18T09:45:33.011Z,14.600
2024-03-18T09:46:22.425Z,14.650
2024-03-18T09:47:35.248Z,14.700
2024-03-18T09:48:19.665Z,14.700
2024-03-18T09:49:30.709Z,14.800
2024-03-18T09:50:25.173Z,14.800
2024-03-18T09:51:22.827Z,14.800
2024-03-18T09:53:27.330Z,14.900
2024-03-18T09:54:25.780Z,14.900
2024-03-18T09:55:19.966Z,14.900
2024-03-18T09:56:22.375Z,14.900
2024-03-18T09:57:20.593Z,14.900
2024-03-18T09:58:21.250Z,14.900
2024-03-18T09:59:19.840Z,14.900
2024-03-18T10:00:28.633Z,15.000
2024-03-18T10:01:25.560Z,15.000
2024-03-18T10:02:19.125Z,15.000
2024-03-18T10:03:27.265Z,15.000
2024-03-18T10:04:25.034Z,15.000
2024-03-18T10:05:21.059Z,15.000
2024-03-18T10:06:25.197Z,15.000
2024-03-18T10:07:27.738Z,15.000
2024-03-18T10:08:22.941Z,15.000
2024-03-18T10:09:20.288Z,15.050
2024-03-18T10:10:31.302Z,15.100
2024-03-18T10:11:26.503Z,15.100
2024-03-18T10:12:21.161Z,15.200
2024-03-18T10:14:21.834Z,15.200
2024-03-18T10:15:23.083Z,15.300
2024-03-18T10:16:20.351Z,15.400
2024-03-18T10:17:30.455Z,15.400
2024-03-18T10:18:29.621Z,15.500
2024-03-18T10:19:22.477Z,15.500
2024-03-18T10:20:32.506Z,15.500
2024-03-18T10:22:24.528Z,15.500
2024-03-18T10:23:19.111Z,15.600
2024-03-18T10:24:31.321Z,15.600
2024-03-18T10:25:25.330Z,15.600
2024-03-18T10:26:25.704Z,15.600
2024-03-18T10:27:31.235Z,15.600
2024-03-18T10:28:30.653Z,15.600
2024-03-18T10:30:18.953Z,15.600
2024-03-18T10:31:29.122Z,15.600
2024-03-18T10:32:26.934Z,15.700
2024-03-18T10:33:23.433Z,15.700
2024-03-18T10:34:22.791Z,15.700
2024-03-18T10:35:30.122Z,15.800
2024-03-18T10:36:26.288Z,15.800
2024-03-18T10:37:19.955Z,15.800
2024-03-18T10:39:27.144Z,15.800
2024-03-18T10:40:21.329Z,15.800
2024-03-18T10:41:24.892Z,15.900
2024-03-18T10:42:27.545Z,15.900
2024-03-18T10:43:23.254Z,16.100
2024-03-18T10:44:20.444Z,16.100
2024-03-18T10:45:30.534Z,16.200
2024-03-18T10:46:29.281Z,16.300
2024-03-18T10:47:22.492Z,16.350
2024-03-18T10:48:32.490Z,16.400
2024-03-18T10:49:22.688Z,16.400
2024-03-18T10:50:23.358Z,16.400
2024-03-18T10:51:19.477Z,16.400
2024-03-18T10:52:21.296Z,16.400
2024-03-18T10:53:29.653Z,16.500
2024-03-18T10:54:23.527Z,16.500
2024-03-18T10:55:33.144Z,16.600
2024-03-18T10:56:29.603Z,16.600
2024-03-18T10:57:23.190Z,16.600
2024-03-18T10:59:26.175Z,16.600
2024-03-18T11:00:25.121Z,16.600
2024-03-18T11:01:23.859Z,16.600
2024-03-18T11:02:22.054Z,16.600
2024-03-18T11:03:29.712Z,16.600
2024-03-18T11:04:24.980Z,16.600
2024-03-18T11:05:19.326Z,16.600
2024-03-18T11:06:30.359Z,16.600
2024-03-18T11:08:21.190Z,16.600
2024-03-18T11:09:24.772Z,16.600
2024-03-18T11:10:26.987Z,16.600
2024-03-18T11:11:23.047Z,16.600
2024-03-18T11:12:20.761Z,16.600
2024-03-18T11:13:20.301Z,16.600
2024-03-18T11:14:27.305Z,16.600
2024-03-18T11:16:29.562Z,16.600
2024-03-18T11:17:28.265Z,16.600
2024-03-18T11:18:23.161Z,16.600
2024-03-18T11:19:20.597Z,16.600
2024-03-18T11:20:22.531Z,16.600
2024-03-18T11:21:25.497Z,16.600
2024-03-18T11:22:21.146Z,16.600
2024-03-18T11:23:33.595Z,16.700
2024-03-18T11:24:29.684Z,16.700
2024-03-18T11:25:23.033Z,16.700
2024-03-18T11:26:19.044Z,16.800
2024-03-18T11:27:20.996Z,16.800
2024-03-18T11:28:25.909Z,16.900
2024-03-18T11:29:21.910Z,16.900
2024-03-18T11:30:24.294Z,16.900
2024-03-18T11:31:20.501Z,16.900
2024-03-18T11:32:23.756Z,16.900
2024-03-18T11:33:19.121Z,16.900
2024-03-18T11:34:25.135Z,17.000
2024-03-18T11:35:25.438Z,17.100
2024-03-18T11:36:36.511Z,17.100
2024-03-18T11:37:25.588Z,17.200
2024-03-18T11:38:23.696Z,17.200
2024-03-18T11:39:24.594Z,17.200
2024-03-18T11:40:19.530Z,17.350
2024-03-18T11:41:31.533Z,17.500
2024-03-18T11:42:23.997Z,17.600
2024-03-18T11:43:21.423Z,17.600
2024-03-18T11:44:31.788Z,17.700
2024-03-18T11:45:22.539Z,17.800
2024-03-18T11:46:23.449Z,17.800
2024-03-18T11:47:19.513Z,17.700
2024-03-18T11:48:29.268Z,17.700
2024-03-18T11:49:21.654Z,17.600
2024-03-18T11:50:23.302Z,17.600
2024-03-18T11:51:35.155Z,17.600
2024-03-18T11:53:19.994Z,17.700
2024-03-18T11:54:19.466Z,17.700
2024-03-18T11:55:31.485Z,17.700
2024-03-18T11:56:25.354Z,17.700
2024-03-18T11:57:23.044Z,17.700
2024-03-18T11:58:31.077Z,17.700
2024-03-18T11:59:27.275Z,17.600
2024-03-18T12:00:19.640Z,17.700
2024-03-18T12:01:20.683Z,17.700
2024-03-18T12:02:31.704Z,17.700
2024-03-18T12:03:27.400Z,17.700
2024-03-18T12:04:21.775Z,17.700
2024-03-18T12:05:20.116Z,17.800
2024-03-18T12:06:27.447Z,17.900
2024-03-18T12:07:23.923Z,17.900
2024-03-18T12:08:21.467Z,18.000
2024-03-18T12:10:25.191Z,18.000
2024-03-18T12:11:21.548Z,18.150
2024-03-18T12:12:23.760Z,18.300
2024-03-18T12:13:28.353Z,18.400
2024-03-18T12:14:25.233Z,18.400
2024-03-18T12:15:19.197Z,18.400
2024-03-18T12:16:31.671Z,18.400
2024-03-18T12:17:25.215Z,18.400
2024-03-18T12:18:22.612Z,18.500
2024-03-18T12:19:29.711Z,18.500
2024-03-18T12:20:20.848Z,18.500
2024-03-18T12:21:24.963Z,18.500
2024-03-18T12:22:20.104Z,18.500
2024-03-18T12:23:23.893Z,18.500
2024-03-18T12:24:26.991Z,18.500
2024-03-18T12:25:23.558Z,18.500
2024-03-18T12:26:31.914Z,18.400
2024-03-18T12:27:29.943Z,18.300
2024-03-18T12:28:24.399Z,18.300
2024-03-18T12:29:20.320Z,18.300
2024-03-18T12:30:31.361Z,18.300
2024-03-18T12:31:21.777Z,18.300
2024-03-18T12:32:21.065Z,18.300
2024-03-18T12:33:31.367Z,18.300
2024-03-18T12:34:29.096Z,18.350
2024-03-18T12:35:24.759Z,18.400
2024-03-18T12:36:21.202Z,18.300
2024-03-18T12:37:30.898Z,18.300
2024-03-18T12:39:21.876Z,18.400
2024-03-18T12:40:33.102Z,18.400
2024-03-18T12:41:27.409Z,18.400
2024-03-18T12:42:27.472Z,18.400
2024-03-18T12:43:19.134Z,18.400
2024-03-18T12:44:29.386Z,18.400
2024-03-18T12:45:31.102Z,18.400
2024-03-18T12:48:27.381Z,18.600
2024-03-18T12:49:24.775Z,18.600
2024-03-18T12:50:19.536Z,18.600
2024-03-18T12:51:30.874Z,18.600
2024-03-18T12:52:25.649Z,18.600
2024-03-18T12:53:24.060Z,18.700
2024-03-18T12:54:23.116Z,18.700
2024-03-18T12:55:27.359Z,18.800
2024-03-18T12:56:23.400Z,18.900
2024-03-18T12:57:19.775Z,18.900
2024-03-18T12:58:21.644Z,18.900
2024-03-18T12:59:25.382Z,18.900
2024-03-18T13:00:21.468Z,18.800
2024-03-18T13:01:25.381Z,18.800
2024-03-18T13:02:29.004Z,18.800
2024-03-18T13:03:24.553Z,18.800
2024-03-18T13:04:20.763Z,18.800
2024-03-18T13:05:20.313Z,18.700
2024-03-18T13:06:25.281Z,18.700
2024-03-18T13:07:23.029Z,18.800
2024-03-18T13:08:31.378Z,18.900
2024-03-18T13:09:21.142Z,19.000
2024-03-18T13:10:25.852Z,19.100
2024-03-18T13:11:19.633Z,19.200
2024-03-18T13:12:23.299Z,19.350
2024-03-18T13:13:21.036Z,19.500
2024-03-18T13:14:21.321Z,19.500
2024-03-18T13:15:31.588Z,19.500
2024-03-18T13:16:24.060Z,19.500
2024-03-18T13:17:26.723Z,19.600
2024-03-18T13:18:19.452Z,19.500